Terminal Aerodrome Forecast
Issued by NWS

Home | Current Version | Previous Version | Text Only | Print | Product List | Glossary Off
Versions: 1 2 3 4 5 6 7 8 9 10 11 12 13

269
FTUS42 KMHX 210529
TAFOAJ
TAF
KOAJ 210529Z 2106/2206 20006KT P6SM BKN090
     FM211400 23009KT P6SM SCT100
     FM212300 VRB03KT P6SM BKN080
     FM220400 03004KT 5SM -SHRA SCT020 BKN040
      AMD LTD TO CLD VIS AND WIND=

USA.gov is the U.S. government's official web portal to all federal, state and local government web resources and services.